createdAt,value
2017-12-15T00:00:30.091Z,4.58
2017-12-15T00:01:10.677Z,4.66
2017-12-15T00:01:51.254Z,4.63
2017-12-15T00:02:31.827Z,4.56
2017-12-15T00:03:12.386Z,4.56
2017-12-15T00:03:52.948Z,4.63
2017-12-15T00:04:33.526Z,4.66
2017-12-15T00:05:14.076Z,4.63
2017-12-15T00:05:54.655Z,4.58
2017-12-15T00:06:35.262Z,4.66
2017-12-15T00:07:15.846Z,4.67
2017-12-15T00:07:56.421Z,4.62
2017-12-15T00:08:37.009Z,4.6
2017-12-15T00:09:17.570Z,4.58
2017-12-15T00:09:58.148Z,4.63
2017-12-15T00:10:38.709Z,4.66
2017-12-15T00:11:19.272Z,4.62
2017-12-15T00:11:59.893Z,4.63
2017-12-15T00:12:40.472Z,4.73
2017-12-15T00:13:21.062Z,4.59
2017-12-15T00:14:01.639Z,4.63
2017-12-15T00:14:42.224Z,4.6
2017-12-15T00:15:22.788Z,4.63
2017-12-15T00:16:03.383Z,4.62
2017-12-15T00:16:43.996Z,4.67
2017-12-15T00:17:24.587Z,4.63
2017-12-15T00:18:05.141Z,4.62
2017-12-15T00:18:45.719Z,4.63
2017-12-15T00:19:26.342Z,4.59
2017-12-15T00:20:06.916Z,4.63
2017-12-15T00:20:47.629Z,4.6
2017-12-15T00:21:28.587Z,4.63
2017-12-15T00:22:09.212Z,4.67
2017-12-15T00:22:49.945Z,4.67
2017-12-15T00:23:30.516Z,4.62
2017-12-15T00:24:11.096Z,4.62
2017-12-15T00:24:51.652Z,4.67
2017-12-15T00:25:32.226Z,4.68
2017-12-15T00:26:12.884Z,4.63
2017-12-15T00:26:53.492Z,4.63
2017-12-15T00:27:34.077Z,4.68
2017-12-15T00:28:14.807Z,4.7
2017-12-15T00:28:55.476Z,4.59
2017-12-15T00:29:36.074Z,4.68
2017-12-15T00:30:16.685Z,4.63
2017-12-15T00:30:57.270Z,4.68
2017-12-15T00:31:37.849Z,4.63
2017-12-15T00:32:18.423Z,4.66
2017-12-15T00:32:58.985Z,4.66
2017-12-15T00:33:39.591Z,4.66
2017-12-15T00:34:20.187Z,4.68
2017-12-15T00:35:00.752Z,4.62
2017-12-15T00:35:41.317Z,4.66
2017-12-15T00:36:21.906Z,4.59
2017-12-15T00:37:02.499Z,4.67
2017-12-15T00:37:43.046Z,4.62
2017-12-15T00:38:23.640Z,4.66
2017-12-15T00:39:04.224Z,4.67
2017-12-15T00:39:44.799Z,4.63
2017-12-15T00:40:25.418Z,4.63
2017-12-15T00:41:05.986Z,4.73
2017-12-15T00:41:46.567Z,4.67
2017-12-15T00:42:27.142Z,4.71
2017-12-15T00:43:07.718Z,4.71
2017-12-15T00:43:48.314Z,4.7
2017-12-15T00:44:28.889Z,4.71
2017-12-15T00:45:09.432Z,4.75
2017-12-15T00:45:49.997Z,4.77
2017-12-15T00:46:30.614Z,4.73
2017-12-15T00:47:11.179Z,4.75
2017-12-15T00:47:51.755Z,4.73
2017-12-15T00:48:32.325Z,4.74
2017-12-15T00:49:12.888Z,4.7
2017-12-15T00:49:53.460Z,4.74
2017-12-15T00:50:34.023Z,4.71
2017-12-15T00:51:14.604Z,4.7
2017-12-15T00:51:55.147Z,4.73
2017-12-15T00:52:35.728Z,4.67
2017-12-15T00:53:16.280Z,4.7
2017-12-15T00:53:56.849Z,4.74
2017-12-15T00:54:37.415Z,4.71
2017-12-15T00:55:17.990Z,4.7
2017-12-15T00:55:58.560Z,4.7
2017-12-15T00:56:39.140Z,4.68
2017-12-15T00:57:19.741Z,4.68
2017-12-15T00:58:00.344Z,4.71
2017-12-15T00:58:40.915Z,4.68
2017-12-15T00:59:21.503Z,4.68
2017-12-15T01:00:02.057Z,4.68
2017-12-15T01:00:42.655Z,4.68
2017-12-15T01:01:23.214Z,4.67
2017-12-15T01:02:03.795Z,4.73
2017-12-15T01:02:44.495Z,4.6
2017-12-15T01:03:25.574Z,4.66
2017-12-15T01:04:06.308Z,4.63
2017-12-15T01:04:46.880Z,4.62
2017-12-15T01:05:27.445Z,4.74
2017-12-15T01:06:08.027Z,4.58
2017-12-15T01:06:48.583Z,4.67
2017-12-15T01:07:29.172Z,4.67
2017-12-15T01:08:09.755Z,4.62
2017-12-15T01:08:50.314Z,4.63
2017-12-15T01:09:30.887Z,4.53
2017-12-15T01:10:11.479Z,4.59
2017-12-15T01:10:52.049Z,4.5
2017-12-15T01:11:32.630Z,4.5
2017-12-15T01:12:13.204Z,4.58
2017-12-15T01:12:53.760Z,4.49
2017-12-15T01:13:34.322Z,4.53
2017-12-15T01:14:15.209Z,4.56
2017-12-15T01:14:56.097Z,4.52
2017-12-15T01:15:37.066Z,4.55
2017-12-15T01:16:17.899Z,4.55
2017-12-15T01:16:58.662Z,4.52
2017-12-15T01:17:39.256Z,4.55
2017-12-15T01:18:19.861Z,4.55
2017-12-15T01:19:00.877Z,4.48
2017-12-15T01:19:41.448Z,4.5
2017-12-15T01:20:22.051Z,4.45
2017-12-15T01:21:02.622Z,4.42
2017-12-15T01:21:43.174Z,4.48
2017-12-15T01:22:23.738Z,4.5
2017-12-15T01:23:04.329Z,4.4
2017-12-15T01:23:44.918Z,4.42
2017-12-15T01:24:25.499Z,4.44
2017-12-15T01:25:06.075Z,4.41
2017-12-15T01:25:46.631Z,4.41
2017-12-15T01:26:27.199Z,4.35
2017-12-15T01:27:07.773Z,4.41
2017-12-15T01:27:48.354Z,4.32
2017-12-15T01:28:28.916Z,4.31
2017-12-15T01:29:09.491Z,4.35
2017-12-15T01:29:50.074Z,4.2
2017-12-15T01:30:30.656Z,4.24
2017-12-15T01:31:11.258Z,4.2
2017-12-15T01:31:51.839Z,4.22
2017-12-15T01:32:32.446Z,4.26
2017-12-15T01:33:13.027Z,4.22
2017-12-15T01:33:53.622Z,4.24
2017-12-15T01:34:34.222Z,4.26
2017-12-15T01:35:14.790Z,4.22
2017-12-15T01:35:55.351Z,4.23
2017-12-15T01:36:35.928Z,4.3
2017-12-15T01:37:16.488Z,4.23
2017-12-15T01:37:57.051Z,4.19
2017-12-15T01:38:37.616Z,4.26
2017-12-15T01:39:18.168Z,4.24
2017-12-15T01:39:58.733Z,4.24
2017-12-15T01:40:39.308Z,4.26
2017-12-15T01:41:19.864Z,4.19
2017-12-15T01:42:01.120Z,4.23
2017-12-15T01:42:41.032Z,4.24
2017-12-15T01:43:21.596Z,4.28
2017-12-15T01:44:02.185Z,4.23
2017-12-15T01:44:42.757Z,4.23
2017-12-15T01:45:23.326Z,4.23
2017-12-15T01:46:03.896Z,4.26
2017-12-15T01:46:44.462Z,4.22
2017-12-15T01:47:25.024Z,4.23
2017-12-15T01:48:05.605Z,4.24
2017-12-15T01:48:46.166Z,4.23
2017-12-15T01:49:26.736Z,4.3
2017-12-15T01:50:07.301Z,4.26
2017-12-15T01:50:47.873Z,4.31
2017-12-15T01:51:28.442Z,4.2
2017-12-15T01:52:09.011Z,4.26
2017-12-15T01:52:49.578Z,4.23
2017-12-15T01:53:30.153Z,4.26
2017-12-15T01:54:10.734Z,4.2
2017-12-15T01:54:51.287Z,4.2
2017-12-15T01:55:31.846Z,4.23
2017-12-15T01:56:12.420Z,4.23
2017-12-15T01:56:53.003Z,4.17
2017-12-15T01:57:33.570Z,4.2
2017-12-15T01:58:14.133Z,4.24
2017-12-15T01:58:54.701Z,4.14
2017-12-15T01:59:35.278Z,4.2
2017-12-15T02:00:15.864Z,4.17
2017-12-15T02:00:56.470Z,4.19
2017-12-15T02:01:37.037Z,4.19
2017-12-15T02:02:17.632Z,4.23
2017-12-15T02:02:58.194Z,4.1
2017-12-15T02:03:38.787Z,4.16
2017-12-15T02:04:19.357Z,4.17
2017-12-15T02:04:59.929Z,4.08
2017-12-15T02:05:40.512Z,4.08
2017-12-15T02:06:21.081Z,4.1
2017-12-15T02:07:01.631Z,4.1
2017-12-15T02:07:42.188Z,4.06
2017-12-15T02:08:22.756Z,4.13
2017-12-15T02:09:03.331Z,4.12
2017-12-15T02:09:43.896Z,4.13
2017-12-15T02:10:24.461Z,4.13
2017-12-15T02:11:05.043Z,4.06
2017-12-15T02:11:45.621Z,4.12
2017-12-15T02:12:26.170Z,4.08
2017-12-15T02:13:06.723Z,4.08
2017-12-15T02:13:47.319Z,4.1
2017-12-15T02:14:27.882Z,4.1
2017-12-15T02:15:08.451Z,4.12
2017-12-15T02:15:49.023Z,4.13
2017-12-15T02:16:29.595Z,4.13
2017-12-15T02:17:10.166Z,4.13
2017-12-15T02:17:50.732Z,4.13
2017-12-15T02:18:31.315Z,4.1
2017-12-15T02:19:11.874Z,4.12
2017-12-15T02:19:52.447Z,4.13
2017-12-15T02:20:33.017Z,4.14
2017-12-15T02:21:13.591Z,4.04
2017-12-15T02:21:54.168Z,4.05
2017-12-15T02:22:34.722Z,4.05
2017-12-15T02:23:15.322Z,4.13
2017-12-15T02:23:55.902Z,4.17
2017-12-15T02:24:36.490Z,4.2
2017-12-15T02:25:17.060Z,4.13
2017-12-15T02:25:57.685Z,4.08
2017-12-15T02:26:38.207Z,4.12
2017-12-15T02:27:18.769Z,4.19
2017-12-15T02:27:59.343Z,4.12
2017-12-15T02:28:39.904Z,4.2
2017-12-15T02:29:20.485Z,4.14
2017-12-15T02:30:01.064Z,4.1
2017-12-15T02:30:41.666Z,4.02
2017-12-15T02:31:22.264Z,4.08
2017-12-15T02:32:02.830Z,4.14
2017-12-15T02:32:43.396Z,4.08
2017-12-15T02:33:23.962Z,4.08
2017-12-15T02:34:04.524Z,4.1
2017-12-15T02:34:45.085Z,4.13
2017-12-15T02:35:25.653Z,4.06
2017-12-15T02:36:06.271Z,4.06
2017-12-15T02:36:46.849Z,4.2
2017-12-15T02:37:27.408Z,4.1
2017-12-15T02:38:07.982Z,4.16
2017-12-15T02:38:48.554Z,4.16
2017-12-15T02:39:29.187Z,4.14
2017-12-15T02:40:09.699Z,4.05
2017-12-15T02:40:50.261Z,4.13
2017-12-15T02:41:30.838Z,4.08
2017-12-15T02:42:11.454Z,4.08
2017-12-15T02:42:52.023Z,4.06
2017-12-15T02:43:32.603Z,4.06
2017-12-15T02:44:13.165Z,4.1
2017-12-15T02:44:53.717Z,4.05
2017-12-15T02:45:34.371Z,4.13
2017-12-15T02:46:14.919Z,4.14
2017-12-15T02:46:55.518Z,4.14
2017-12-15T02:47:36.088Z,4.1
2017-12-15T02:48:16.659Z,4.12
2017-12-15T02:48:57.212Z,4.13
2017-12-15T02:49:37.799Z,4.05
2017-12-15T02:50:18.384Z,4.05
2017-12-15T02:50:58.927Z,4.13
2017-12-15T02:51:39.504Z,4.1
2017-12-15T02:52:20.062Z,4.13
2017-12-15T02:53:00.721Z,4.05
2017-12-15T02:53:41.275Z,4.12
2017-12-15T02:54:21.872Z,4.1
2017-12-15T02:55:02.465Z,4.12
2017-12-15T02:55:43.051Z,4.13
2017-12-15T02:56:23.618Z,4.06
2017-12-15T02:57:04.192Z,4.12
2017-12-15T02:57:44.770Z,4.06
2017-12-15T02:58:25.335Z,4.02
2017-12-15T02:59:05.958Z,4.06
2017-12-15T02:59:46.563Z,4.08
2017-12-15T03:00:27.166Z,4.08
2017-12-15T03:01:07.779Z,4.08
2017-12-15T03:01:48.334Z,4.1
2017-12-15T03:02:28.905Z,4.01
2017-12-15T03:03:09.479Z,4.02
2017-12-15T03:03:50.042Z,4.05
2017-12-15T03:04:30.606Z,3.98
2017-12-15T03:05:11.174Z,3.95
2017-12-15T03:05:51.743Z,3.91
2017-12-15T03:06:32.322Z,3.94
2017-12-15T03:07:12.879Z,3.88
2017-12-15T03:07:53.464Z,3.91
2017-12-15T03:08:34.049Z,3.86
2017-12-15T03:09:14.607Z,3.88
2017-12-15T03:09:55.183Z,3.83
2017-12-15T03:10:35.784Z,3.84
2017-12-15T03:11:16.361Z,3.86
2017-12-15T03:11:56.929Z,3.91
2017-12-15T03:12:37.536Z,3.83
2017-12-15T03:13:18.150Z,3.86
2017-12-15T03:13:58.723Z,3.78
2017-12-15T03:14:39.343Z,3.77
2017-12-15T03:15:19.908Z,3.8
2017-12-15T03:16:00.468Z,3.87
2017-12-15T03:16:41.039Z,3.83
2017-12-15T03:17:21.678Z,3.78
2017-12-15T03:18:02.251Z,3.84
2017-12-15T03:18:42.862Z,3.77
2017-12-15T03:19:23.438Z,3.8
2017-12-15T03:20:04.002Z,3.78
2017-12-15T03:20:44.605Z,3.83
2017-12-15T03:21:25.197Z,3.8
2017-12-15T03:22:05.867Z,3.76
2017-12-15T03:22:46.444Z,3.8
2017-12-15T03:23:27.056Z,3.77
2017-12-15T03:24:07.632Z,3.77
2017-12-15T03:24:48.228Z,3.77
2017-12-15T03:25:28.782Z,3.76
2017-12-15T03:26:09.348Z,3.8
2017-12-15T03:26:49.987Z,3.8
2017-12-15T03:27:30.545Z,3.73
2017-12-15T03:28:11.118Z,3.8
2017-12-15T03:28:51.690Z,3.8
2017-12-15T03:29:32.267Z,3.8
2017-12-15T03:30:12.859Z,3.7
2017-12-15T03:30:53.395Z,3.77
2017-12-15T03:31:33.979Z,3.8
2017-12-15T03:32:14.549Z,3.8
2017-12-15T03:32:55.131Z,3.8
2017-12-15T03:33:35.708Z,3.76
2017-12-15T03:34:16.283Z,3.78
2017-12-15T03:34:56.872Z,3.77
2017-12-15T03:35:37.424Z,3.8
2017-12-15T03:36:17.993Z,3.81
2017-12-15T03:36:58.555Z,3.8
2017-12-15T03:37:39.146Z,3.8
2017-12-15T03:38:19.707Z,3.77
2017-12-15T03:39:00.287Z,3.78
2017-12-15T03:39:40.853Z,3.8
2017-12-15T03:40:21.430Z,3.8
2017-12-15T03:41:02.102Z,3.74
2017-12-15T03:41:42.689Z,3.8
2017-12-15T03:42:23.254Z,3.83
2017-12-15T03:43:03.849Z,3.83
2017-12-15T03:43:44.411Z,3.78
2017-12-15T03:44:24.980Z,3.81
2017-12-15T03:45:05.538Z,3.81
2017-12-15T03:45:46.103Z,3.8
2017-12-15T03:46:26.716Z,3.8
2017-12-15T03:47:07.325Z,3.8
2017-12-15T03:47:47.971Z,3.81
2017-12-15T03:48:28.678Z,3.8
2017-12-15T03:49:09.237Z,3.81
2017-12-15T03:49:49.810Z,3.84
2017-12-15T03:50:30.383Z,3.8
2017-12-15T03:51:10.952Z,3.87
2017-12-15T03:51:51.523Z,3.87
2017-12-15T03:52:32.070Z,3.81
2017-12-15T03:53:12.640Z,3.91
2017-12-15T03:53:53.207Z,3.91
2017-12-15T03:54:33.770Z,3.95
2017-12-15T03:55:14.326Z,3.83
2017-12-15T03:55:54.895Z,3.86
2017-12-15T03:56:35.469Z,3.86
2017-12-15T03:57:16.050Z,3.86
2017-12-15T03:57:56.649Z,3.88
2017-12-15T03:58:37.227Z,3.86
2017-12-15T03:59:17.778Z,3.91
2017-12-15T03:59:58.392Z,3.92
2017-12-15T04:00:38.977Z,3.86
2017-12-15T04:01:19.574Z,3.95
2017-12-15T04:02:00.151Z,3.88
2017-12-15T04:02:40.763Z,3.94
2017-12-15T04:03:21.400Z,3.87
2017-12-15T04:04:01.992Z,3.88
2017-12-15T04:04:42.575Z,3.96
2017-12-15T04:05:23.149Z,3.95
2017-12-15T04:06:03.728Z,3.91
2017-12-15T04:06:44.325Z,3.94
2017-12-15T04:07:24.869Z,3.94
2017-12-15T04:08:05.483Z,3.98
2017-12-15T04:08:46.085Z,3.91
2017-12-15T04:09:26.670Z,4.01
2017-12-15T04:10:07.244Z,3.96
2017-12-15T04:10:47.846Z,4.01
2017-12-15T04:11:28.409Z,3.99
2017-12-15T04:12:09.007Z,3.96
2017-12-15T04:12:49.578Z,4.01
2017-12-15T04:13:30.167Z,3.96
2017-12-15T04:14:10.731Z,4.02
2017-12-15T04:14:51.307Z,3.98
2017-12-15T04:15:31.876Z,4.05
2017-12-15T04:16:12.430Z,4.05
2017-12-15T04:16:53.003Z,3.99
2017-12-15T04:17:33.572Z,4.05
2017-12-15T04:18:14.147Z,3.99
2017-12-15T04:18:54.723Z,4.01
2017-12-15T04:19:35.339Z,3.99
2017-12-15T04:20:15.893Z,4.05
2017-12-15T04:20:56.474Z,3.96
2017-12-15T04:21:37.080Z,4.01
2017-12-15T04:22:17.630Z,4.02
2017-12-15T04:22:58.200Z,3.98
2017-12-15T04:23:38.782Z,4.04
2017-12-15T04:24:19.367Z,4.04
2017-12-15T04:24:59.944Z,3.99
2017-12-15T04:25:40.533Z,3.96
2017-12-15T04:26:21.120Z,3.96
2017-12-15T04:27:01.696Z,4.02
2017-12-15T04:27:42.282Z,4.04
2017-12-15T04:28:22.887Z,3.98
2017-12-15T04:29:03.446Z,4.06
2017-12-15T04:29:44.014Z,4.01
2017-12-15T04:30:24.795Z,4.05
2017-12-15T04:31:05.395Z,4.04
2017-12-15T04:31:45.982Z,4.06
2017-12-15T04:32:26.575Z,4.05
2017-12-15T04:33:07.188Z,4.01
2017-12-15T04:33:47.760Z,4.08
2017-12-15T04:34:28.364Z,4.04
2017-12-15T04:35:08.935Z,4.06
2017-12-15T04:35:49.487Z,4.13
2017-12-15T04:36:30.067Z,4.12
2017-12-15T04:37:10.622Z,4.12
2017-12-15T04:37:51.193Z,4.13
2017-12-15T04:38:31.778Z,4.13
2017-12-15T04:39:12.332Z,4.06
2017-12-15T04:39:52.914Z,4.06
2017-12-15T04:40:33.489Z,4.14
2017-12-15T04:41:14.099Z,4.19
2017-12-15T04:41:54.691Z,4.08
2017-12-15T04:42:35.313Z,4.22
2017-12-15T04:43:15.871Z,4.23
2017-12-15T04:43:56.434Z,4.12
2017-12-15T04:44:37.007Z,4.23
2017-12-15T04:45:17.615Z,4.12
2017-12-15T04:45:58.185Z,4.2
2017-12-15T04:46:38.773Z,4.24
2017-12-15T04:47:19.343Z,4.16
2017-12-15T04:47:59.942Z,4.23
2017-12-15T04:48:40.514Z,4.19
2017-12-15T04:49:21.070Z,4.19
2017-12-15T04:50:01.637Z,4.17
2017-12-15T04:50:42.233Z,4.17
2017-12-15T04:51:22.795Z,4.17
2017-12-15T04:52:03.345Z,4.16
2017-12-15T04:52:43.976Z,4.19
2017-12-15T04:54:32.027Z,4.19
2017-12-15T04:55:12.611Z,4.17
2017-12-15T04:55:53.183Z,4.17
2017-12-15T04:56:33.748Z,4.17
2017-12-15T04:57:14.339Z,4.23
2017-12-15T04:57:54.902Z,4.17
2017-12-15T04:58:35.463Z,4.24
2017-12-15T04:59:16.037Z,4.17
2017-12-15T04:59:56.618Z,4.2
2017-12-15T05:00:37.184Z,4.16
2017-12-15T05:01:17.750Z,4.1
2017-12-15T05:01:58.328Z,4.23
2017-12-15T05:02:38.896Z,4.13
2017-12-15T05:03:19.457Z,4.2
2017-12-15T05:04:00.018Z,4.2
2017-12-15T05:04:40.581Z,4.16
2017-12-15T05:05:21.178Z,4.22
2017-12-15T05:06:01.742Z,4.08
2017-12-15T05:06:42.299Z,4.16
2017-12-15T05:07:22.871Z,4.12
2017-12-15T05:08:03.443Z,4.13
2017-12-15T05:08:44.015Z,4.14
2017-12-15T05:09:24.584Z,4.13
2017-12-15T05:10:05.181Z,4.1
2017-12-15T05:10:45.741Z,4.17
2017-12-15T05:11:26.314Z,4.1
2017-12-15T05:12:06.924Z,4.06
2017-12-15T05:12:47.485Z,4.17
2017-12-15T05:13:28.047Z,4.17
2017-12-15T05:14:08.608Z,4.16
2017-12-15T05:14:49.169Z,4.08
2017-12-15T05:15:29.739Z,4.12
2017-12-15T05:16:10.324Z,4.24
2017-12-15T05:16:50.905Z,4.13
2017-12-15T05:17:32.093Z,4.13
2017-12-15T05:18:13.140Z,4.17
2017-12-15T05:18:53.705Z,4.16
2017-12-15T05:19:34.313Z,4.19
2017-12-15T05:20:14.879Z,4.16
2017-12-15T05:20:55.441Z,4.13
2017-12-15T05:21:36.026Z,4.06
2017-12-15T05:22:16.620Z,4.12
2017-12-15T05:22:57.187Z,4.1
2017-12-15T05:23:37.735Z,4.06
2017-12-15T05:24:18.330Z,4.14
2017-12-15T05:24:58.898Z,4.13
2017-12-15T05:25:39.473Z,4.17
2017-12-15T05:26:20.032Z,4.12
2017-12-15T05:27:00.604Z,4.14
2017-12-15T05:27:41.179Z,4.12
2017-12-15T05:28:21.813Z,4.05
2017-12-15T05:29:02.430Z,4.04
2017-12-15T05:29:42.998Z,4.13
2017-12-15T05:30:23.566Z,4.1
2017-12-15T05:31:04.146Z,4.13
2017-12-15T05:31:44.708Z,4.12
2017-12-15T05:32:25.289Z,4.1
2017-12-15T05:33:05.848Z,4.02
2017-12-15T05:33:46.425Z,4.14
2017-12-15T05:34:27.002Z,4.05
2017-12-15T05:35:07.566Z,3.99
2017-12-15T05:35:48.139Z,4.06
2017-12-15T05:36:28.725Z,4.08
2017-12-15T05:37:09.342Z,4.08
2017-12-15T05:37:49.960Z,4.04
2017-12-15T05:38:30.527Z,4.06
2017-12-15T05:39:11.103Z,4.01
2017-12-15T05:39:51.667Z,4.08
2017-12-15T05:40:32.234Z,4.12
2017-12-15T05:41:12.795Z,4.12
2017-12-15T05:41:53.378Z,4.12
2017-12-15T05:42:33.959Z,4.1
2017-12-15T05:43:14.543Z,4.01
2017-12-15T05:43:55.133Z,4.06
2017-12-15T05:44:35.682Z,4.08
2017-12-15T05:45:16.299Z,4.06
2017-12-15T05:45:56.886Z,4.14
2017-12-15T05:46:37.463Z,4.06
2017-12-15T05:47:18.033Z,4.1
2017-12-15T05:47:58.603Z,4.05
2017-12-15T05:48:39.212Z,4.04
2017-12-15T05:49:19.809Z,4.08
2017-12-15T05:50:00.391Z,4.1
2017-12-15T05:50:40.971Z,4.08
2017-12-15T05:51:21.549Z,4.17
2017-12-15T05:52:02.238Z,4.05
2017-12-15T05:52:43.102Z,4.1
2017-12-15T05:53:23.914Z,4.06
2017-12-15T05:54:04.508Z,4.13
2017-12-15T05:54:45.082Z,4.1
2017-12-15T05:55:25.657Z,4.06
2017-12-15T05:56:06.211Z,4.05
2017-12-15T05:56:46.796Z,4.1
2017-12-15T05:57:27.372Z,4.12
2017-12-15T05:58:07.930Z,4.23
2017-12-15T05:58:48.536Z,4.14
2017-12-15T05:59:29.110Z,4.08
2017-12-15T06:00:09.672Z,4.05
2017-12-15T06:00:50.276Z,4.12
2017-12-15T06:01:30.827Z,4.17
2017-12-15T06:02:11.423Z,4.13
2017-12-15T06:02:52.075Z,4.08
2017-12-15T06:03:32.660Z,4.04
2017-12-15T06:04:13.226Z,4.06
2017-12-15T06:04:53.795Z,4.1
2017-12-15T06:05:34.399Z,4.17
2017-12-15T06:06:14.962Z,4.13
2017-12-15T06:06:55.525Z,4.1
2017-12-15T06:07:36.095Z,4.23
2017-12-15T06:08:16.681Z,4.2
2017-12-15T06:08:57.241Z,4.17
2017-12-15T06:09:37.787Z,4.19
2017-12-15T06:10:18.377Z,4.17
2017-12-15T06:10:58.932Z,4.19
2017-12-15T06:11:39.495Z,4.19
2017-12-15T06:12:20.039Z,4.23
2017-12-15T06:13:00.617Z,4.22
2017-12-15T06:13:41.195Z,4.17
2017-12-15T06:14:21.784Z,4.16
2017-12-15T06:15:02.347Z,4.04
2017-12-15T06:15:42.911Z,4.13
2017-12-15T06:16:23.490Z,4.06
2017-12-15T06:17:04.114Z,4.12
2017-12-15T06:17:44.698Z,4.08
2017-12-15T06:18:25.275Z,4.13
2017-12-15T06:19:05.855Z,4.08
2017-12-15T06:19:46.456Z,4.12
2017-12-15T06:20:27.011Z,4.13
2017-12-15T06:21:07.579Z,4.04
2017-12-15T06:21:48.128Z,4.08
2017-12-15T06:22:28.690Z,4.06
2017-12-15T06:23:09.300Z,4.13
2017-12-15T06:23:49.865Z,4.1
2017-12-15T06:24:30.430Z,4.04
2017-12-15T06:25:11.001Z,4.06
2017-12-15T06:25:51.562Z,4.05
2017-12-15T06:26:32.150Z,4.06
2017-12-15T06:27:12.719Z,4.13
2017-12-15T06:27:53.286Z,4.12
2017-12-15T06:28:33.865Z,4.2
2017-12-15T06:29:14.431Z,4.23
2017-12-15T06:29:55.177Z,4.44
2017-12-15T06:30:35.784Z,4.53
2017-12-15T06:31:16.679Z,4.62
2017-12-15T06:31:57.256Z,4.78
2017-12-15T06:32:37.820Z,5
2017-12-15T06:33:18.412Z,5.18
2017-12-15T06:33:58.986Z,5.46
2017-12-15T06:34:39.546Z,5.64
2017-12-15T06:35:20.127Z,5.8
2017-12-15T06:36:00.691Z,5.9
2017-12-15T06:36:41.291Z,5.98
2017-12-15T06:37:22.264Z,6.12
2017-12-15T06:38:02.841Z,6.33
2017-12-15T06:38:43.395Z,6.3
2017-12-15T06:39:24.015Z,6.33
2017-12-15T06:40:04.617Z,6.27
2017-12-15T06:40:45.186Z,6.14
2017-12-15T06:41:27.680Z,6.12
2017-12-15T06:42:08.269Z,6.08
2017-12-15T06:42:48.849Z,5.98
2017-12-15T06:43:29.398Z,5.86
2017-12-15T06:44:09.963Z,5.75
2017-12-15T06:44:50.538Z,5.62
2017-12-15T06:45:31.112Z,5.51
2017-12-15T06:46:11.692Z,5.53
2017-12-15T06:46:52.284Z,5.39
2017-12-15T06:47:32.844Z,5.39
2017-12-15T06:48:13.381Z,5.28
2017-12-15T06:48:53.935Z,5.23
2017-12-15T06:49:34.542Z,5.18
2017-12-15T06:50:15.105Z,5.08
2017-12-15T06:50:55.668Z,5.07
2017-12-15T06:51:36.245Z,5.02
2017-12-15T06:52:16.807Z,4.94
2017-12-15T06:52:57.368Z,4.92
2017-12-15T06:53:37.934Z,4.78
2017-12-15T06:54:18.507Z,4.82
2017-12-15T06:54:59.088Z,4.75
2017-12-15T06:55:39.689Z,4.7
2017-12-15T06:56:20.263Z,4.71
2017-12-15T06:57:00.829Z,4.67
2017-12-15T06:57:41.387Z,4.58
2017-12-15T06:58:21.956Z,4.63
2017-12-15T06:59:02.525Z,4.67
2017-12-15T06:59:43.113Z,4.7
2017-12-15T07:00:23.672Z,4.67
2017-12-15T07:01:04.230Z,4.66
2017-12-15T07:01:44.826Z,4.67
2017-12-15T07:02:25.394Z,4.56
2017-12-15T07:03:05.960Z,4.6
2017-12-15T07:03:46.522Z,4.62
2017-12-15T07:04:27.168Z,4.55
2017-12-15T07:05:07.752Z,4.58
2017-12-15T07:05:48.363Z,4.6
2017-12-15T07:06:28.910Z,4.5
2017-12-15T07:07:09.472Z,4.5
2017-12-15T07:07:50.034Z,4.52
2017-12-15T07:08:30.608Z,4.52
2017-12-15T07:09:11.172Z,4.53
2017-12-15T07:09:51.741Z,4.45
2017-12-15T07:10:32.438Z,4.42
2017-12-15T07:11:12.996Z,4.44
2017-12-15T07:11:53.564Z,4.45
2017-12-15T07:12:34.159Z,4.55
2017-12-15T07:13:14.743Z,4.4
2017-12-15T07:13:55.300Z,4.45
2017-12-15T07:14:35.874Z,4.44
2017-12-15T07:15:16.460Z,4.38
2017-12-15T07:15:57.032Z,4.31
2017-12-15T07:16:37.582Z,4.35
2017-12-15T07:17:18.219Z,4.22
2017-12-15T07:17:58.812Z,4.24
2017-12-15T07:18:39.360Z,4.22
2017-12-15T07:19:19.922Z,4.23
2017-12-15T07:20:00.507Z,4.16
2017-12-15T07:20:41.070Z,4.22
2017-12-15T07:21:21.650Z,4.08
2017-12-15T07:22:02.228Z,4.23
2017-12-15T07:22:42.789Z,4.06
2017-12-15T07:23:23.365Z,4.17
2017-12-15T07:24:03.998Z,4.06
2017-12-15T07:24:44.558Z,4.13
2017-12-15T07:25:25.121Z,4.05
2017-12-15T07:26:05.724Z,4.12
2017-12-15T07:26:46.350Z,4.1
2017-12-15T07:27:26.904Z,4.1
2017-12-15T07:28:07.460Z,4.05
2017-12-15T07:28:48.052Z,4.06
2017-12-15T07:29:28.626Z,3.95
2017-12-15T07:30:09.449Z,4.08
2017-12-15T07:30:50.269Z,4.02
2017-12-15T07:31:30.822Z,4.1
2017-12-15T07:32:11.373Z,3.98
2017-12-15T07:32:51.949Z,4.05
2017-12-15T07:33:32.522Z,4.1
2017-12-15T07:34:13.081Z,4.12
2017-12-15T07:34:53.691Z,4.1
2017-12-15T07:35:34.248Z,4.12
2017-12-15T07:36:14.866Z,4.1
2017-12-15T07:36:55.441Z,4.08
2017-12-15T07:37:36.025Z,4.08
2017-12-15T07:38:16.583Z,4.06
2017-12-15T07:38:57.149Z,4.08
2017-12-15T07:39:37.734Z,4.04
2017-12-15T07:40:18.285Z,4.2
2017-12-15T07:40:58.872Z,4.02
2017-12-15T07:41:39.477Z,4.1
2017-12-15T07:42:20.059Z,4.08
2017-12-15T07:43:00.657Z,4.1
2017-12-15T07:43:41.254Z,4.12
2017-12-15T07:44:21.813Z,4.08
2017-12-15T07:45:02.399Z,4.06
2017-12-15T07:45:43.001Z,4.06
2017-12-15T07:46:23.548Z,4.05
2017-12-15T07:47:04.125Z,4.06
2017-12-15T07:47:44.699Z,4.04
2017-12-15T07:48:25.268Z,4.08
2017-12-15T07:49:05.868Z,4.13
2017-12-15T07:49:46.426Z,4.05
2017-12-15T07:50:27.011Z,4.1
2017-12-15T07:51:07.590Z,4.1
2017-12-15T07:51:48.148Z,4.13
2017-12-15T07:52:28.804Z,4.04
2017-12-15T07:53:09.357Z,4.06
2017-12-15T07:53:49.961Z,4.1
2017-12-15T07:54:30.520Z,4.14
2017-12-15T07:55:11.102Z,4.13
2017-12-15T07:55:51.669Z,4.08
2017-12-15T07:56:32.233Z,4.1
2017-12-15T07:57:12.821Z,4.04
2017-12-15T07:57:53.379Z,4.12
2017-12-15T07:58:33.991Z,4.05
2017-12-15T07:59:14.559Z,4.06
2017-12-15T07:59:55.118Z,4.06
2017-12-15T08:00:35.677Z,4.04
2017-12-15T08:01:16.241Z,4.06
2017-12-15T08:01:56.821Z,3.99
2017-12-15T08:02:37.373Z,3.98
2017-12-15T08:03:17.941Z,4.1
2017-12-15T08:03:58.512Z,4.08
2017-12-15T08:04:39.088Z,4.08
2017-12-15T08:05:19.662Z,4.08
2017-12-15T08:06:00.237Z,4.1
2017-12-15T08:06:40.804Z,4.06
2017-12-15T08:07:21.372Z,4.16
2017-12-15T08:08:01.929Z,4.19
2017-12-15T08:08:42.520Z,4.23
2017-12-15T08:09:23.105Z,4.2
2017-12-15T08:10:03.666Z,4.23
2017-12-15T08:10:44.233Z,4.23
2017-12-15T08:11:24.792Z,4.23
2017-12-15T08:12:05.364Z,4.2
2017-12-15T08:12:45.957Z,4.32
2017-12-15T08:13:26.532Z,4.35
2017-12-15T08:14:07.098Z,4.22
2017-12-15T08:14:47.678Z,4.32
2017-12-15T08:15:28.265Z,4.42
2017-12-15T08:16:08.836Z,4.31
2017-12-15T08:16:49.426Z,4.35
2017-12-15T08:17:29.985Z,4.35
2017-12-15T08:18:10.579Z,4.32
2017-12-15T08:18:51.149Z,4.42
2017-12-15T08:19:31.712Z,4.45
2017-12-15T08:20:12.283Z,4.4
2017-12-15T08:20:52.847Z,4.32
2017-12-15T08:21:33.432Z,4.4
2017-12-15T08:22:14.014Z,4.34
2017-12-15T08:22:54.637Z,4.38
2017-12-15T08:23:35.226Z,4.5
2017-12-15T08:24:15.790Z,4.45
2017-12-15T08:24:56.409Z,4.5
2017-12-15T08:25:36.988Z,4.5
2017-12-15T08:26:17.616Z,4.45
2017-12-15T08:26:58.171Z,4.45
2017-12-15T08:27:38.741Z,4.55
2017-12-15T08:28:19.306Z,4.52
2017-12-15T08:28:59.871Z,4.49
2017-12-15T08:29:40.433Z,4.55
2017-12-15T08:30:21.009Z,4.53
2017-12-15T08:31:01.570Z,4.55
2017-12-15T08:31:42.227Z,4.53
2017-12-15T08:32:22.806Z,4.53
2017-12-15T08:33:03.391Z,4.5
2017-12-15T08:33:43.953Z,4.53
2017-12-15T08:34:24.566Z,4.55
2017-12-15T08:35:05.108Z,4.56
2017-12-15T08:35:45.734Z,4.63
2017-12-15T08:36:26.287Z,4.59
2017-12-15T08:37:06.867Z,4.67
2017-12-15T08:37:47.531Z,4.56
2017-12-15T08:38:28.047Z,4.7
2017-12-15T08:39:08.629Z,4.49
2017-12-15T08:39:49.203Z,4.6
2017-12-15T08:40:29.775Z,4.59
2017-12-15T08:41:10.377Z,4.73
2017-12-15T08:41:50.956Z,4.7
2017-12-15T08:42:31.522Z,4.7
2017-12-15T08:43:12.232Z,4.71
2017-12-15T08:43:52.818Z,4.71
2017-12-15T08:44:33.392Z,4.63
2017-12-15T08:45:13.973Z,4.67
2017-12-15T08:45:54.549Z,4.63
2017-12-15T08:46:35.115Z,4.66
2017-12-15T08:47:15.698Z,4.6
2017-12-15T08:47:56.262Z,4.7
2017-12-15T08:48:36.837Z,4.74
2017-12-15T08:49:17.411Z,4.62
2017-12-15T08:49:57.974Z,4.7
2017-12-15T08:50:38.550Z,4.71
2017-12-15T08:51:19.949Z,4.67
2017-12-15T08:52:00.960Z,4.7
2017-12-15T08:52:41.627Z,4.68
2017-12-15T08:53:22.269Z,4.67
2017-12-15T08:54:02.836Z,4.74
2017-12-15T08:54:43.400Z,4.73
2017-12-15T08:55:23.977Z,4.73
2017-12-15T08:56:04.565Z,4.73
2017-12-15T08:56:45.136Z,4.71
2017-12-15T08:57:25.704Z,4.74
2017-12-15T08:58:06.256Z,4.71
2017-12-15T08:58:46.833Z,4.73
2017-12-15T08:59:27.415Z,4.73
2017-12-15T09:00:07.990Z,4.7
2017-12-15T09:00:48.596Z,4.78
2017-12-15T09:01:29.177Z,4.78
2017-12-15T09:02:09.778Z,4.8
2017-12-15T09:02:50.357Z,4.9
2017-12-15T09:03:30.923Z,4.89
2017-12-15T09:04:11.496Z,4.87